Time;durP1;ratioP1;P1;durP2;ratioP2;P2;SDS_P1;SDS_P2;PMS_P1;PMS_P2;Temp;Humidity;BMP_temperature;BMP_pressure;BME280_temperature;BME280_humidity;BME280_pressure;Samples;Min_cycle;Max_cycle;Signal;HPM_P1;HPM_P2
2023/07/07 00:01:20;;;;;;;9.20;8.30;;;;;;;;;;4995018;28;20042;-78
2023/07/07 00:03:47;;;;;;;13.63;9.85;;;;;;;;;;4995420;28;20042;-79
2023/07/07 00:06:13;;;;;;;10.57;9.77;;;;;;;;;;4994568;28;20101;-77
2023/07/07 00:08:39;;;;;;;11.27;9.18;;;;;;;;;;4994791;28;20030;-78
2023/07/07 00:11:05;;;;;;;10.30;9.32;;;;;;;;;;4993329;28;20073;-78
2023/07/07 00:13:31;;;;;;;10.27;9.23;;;;;;;;;;4993121;28;20038;-78
2023/07/07 00:15:58;;;;;;;9.82;8.93;;;;;;;;;;4993423;28;20038;-79
2023/07/07 00:18:27;;;;;;;12.65;9.77;;;;;;;;;;4994523;28;20042;-77
2023/07/07 00:20:56;;;;;;;10.40;9.50;;;;;;;;;;4993535;28;20038;-77
2023/07/07 00:23:24;;;;;;;;;;;;;;;;;;4993785;28;20057;-79
2023/07/07 00:25:59;;;;;;;9.95;9.25;;;;;;;;;;4995293;28;19913;-77
2023/07/07 00:28:25;;;;;;;10.43;9.48;;;;;;;;;;4996749;28;20034;-77
2023/07/07 00:30:52;;;;;;;10.52;9.70;;;;;;;;;;4994276;28;20049;-78
2023/07/07 00:33:18;;;;;;;11.10;10.10;;;;;;;;;;4994133;28;20053;-77
2023/07/07 00:35:46;;;;;;;11.02;9.93;;;;;;;;;;4994034;28;20049;-78
2023/07/07 00:38:12;;;;;;;10.88;10.07;;;;;;;;;;4993989;28;20033;-76
2023/07/07 00:40:38;;;;;;;11.23;10.35;;;;;;;;;;4992815;28;20129;-78
2023/07/07 00:43:11;;;;;;;10.85;9.77;;;;;;;;;;4993930;28;20042;-77
2023/07/07 00:45:37;;;;;;;13.77;9.88;;;;;;;;;;4994390;28;20042;-78
2023/07/07 00:48:03;;;;;;;10.80;9.90;;;;;;;;;;4994222;28;20038;-76
2023/07/07 00:50:30;;;;;;;10.27;9.38;;;;;;;;;;4993895;28;20036;-76
2023/07/07 00:52:57;;;;;;;10.35;9.32;;;;;;;;;;4992961;28;20058;-78
2023/07/07 00:55:27;;;;;;;10.43;9.55;;;;;;;;;;4994118;28;20417;-78
2023/07/07 00:57:53;;;;;;;10.10;9.18;;;;;;;;;;4992641;28;20129;-78
2023/07/07 01:00:20;;;;;;;11.27;10.27;;;;;;;;;;4993711;28;20062;-79
2023/07/07 01:02:48;;;;;;;13.48;9.73;;;;;;;;;;4993917;28;20097;-75
2023/07/07 01:05:14;;;;;;;10.95;9.95;;;;;;;;;;4992152;28;20094;-77
2023/07/07 01:07:41;;;;;;;10.82;9.75;;;;;;;;;;4993648;28;20042;-76
2023/07/07 01:10:07;;;;;;;9.88;9.18;;;;;;;;;;4976169;28;20034;-77
2023/07/07 01:12:33;;;;;;;11.50;9.60;;;;;;;;;;4991923;28;20429;-77
2023/07/07 01:14:59;;;;;;;10.95;9.95;;;;;;;;;;4993932;28;20041;-78
2023/07/07 01:17:32;;;;;;;9.60;8.80;;;;;;;;;;4992527;28;20034;-77
2023/07/07 01:20:21;;;;;;;13.43;9.40;;;;;;;;;;4977248;28;20058;-77
2023/07/07 01:22:56;;;;;;;10.70;9.80;;;;;;;;;;4994291;28;20069;-77
2023/07/07 01:25:41;;;;;;;11.07;10.07;;;;;;;;;;4993226;28;20509;-77
2023/07/07 01:28:07;;;;;;;9.82;9.10;;;;;;;;;;4994350;28;20042;-77
2023/07/07 01:30:36;;;;;;;10.98;10.15;;;;;;;;;;4993855;28;20129;-79
2023/07/07 01:33:03;;;;;;;8.73;7.88;;;;;;;;;;4994431;28;20046;-78
2023/07/07 01:35:29;;;;;;;10.50;8.90;;;;;;;;;;4992753;28;20038;-77
2023/07/07 01:37:56;;;;;;;11.43;10.57;;;;;;;;;;4993103;28;20057;-77
2023/07/07 01:40:26;;;;;;;11.63;10.43;;;;;;;;;;4992946;28;20178;-78
2023/07/07 01:42:52;;;;;;;11.98;10.77;;;;;;;;;;4991569;28;20042;-76
2023/07/07 01:45:51;;;;;;;10.93;9.93;;;;;;;;;;4975676;28;20035;-78
2023/07/07 01:48:20;;;;;;;12.20;10.82;;;;;;;;;;4959479;28;20469;-78
2023/07/07 01:50:47;;;;;;;15.57;10.80;;;;;;;;;;4991784;28;20042;-77
2023/07/07 01:53:14;;;;;;;12.15;11.10;;;;;;;;;;4992964;28;20144;-78
2023/07/07 01:55:41;;;;;;;11.80;10.63;;;;;;;;;;4975597;28;20062;-78
2023/07/07 01:58:07;;;;;;;9.18;8.48;;;;;;;;;;4991660;28;20034;-77
2023/07/07 02:00:34;;;;;;;10.98;10.00;;;;;;;;;;4959413;28;20044;-78
2023/07/07 02:03:00;;;;;;;12.68;10.05;;;;;;;;;;4991537;28;20043;-78
2023/07/07 02:05:26;;;;;;;10.52;9.73;;;;;;;;;;5000828;28;20065;-75
2023/07/07 02:07:53;;;;;;;11.00;10.10;;;;;;;;;;5013050;28;20018;-77
2023/07/07 02:10:18;;;;;;;11.23;10.32;;;;;;;;;;5004208;28;20035;-77
2023/07/07 02:12:47;;;;;;;11.20;9.40;;;;;;;;;;4979435;28;20046;-77
2023/07/07 02:15:13;;;;;;;11.57;10.43;;;;;;;;;;4995300;28;20037;-77
2023/07/07 02:17:40;;;;;;;10.00;9.02;;;;;;;;;;4992248;28;20069;-77
2023/07/07 02:20:26;;;;;;;10.55;9.80;;;;;;;;;;4990857;28;20596;-76
2023/07/07 02:22:52;;;;;;;11.90;10.80;;;;;;;;;;4991117;28;20069;-76
2023/07/07 02:25:18;;;;;;;11.65;10.57;;;;;;;;;;4992535;28;20090;-75
2023/07/07 02:27:44;;;;;;;10.98;10.15;;;;;;;;;;4991492;28;20417;-78
2023/07/07 02:30:10;;;;;;;11.50;10.57;;;;;;;;;;4991238;28;20042;-77
2023/07/07 02:32:36;;;;;;;10.95;9.80;;;;;;;;;;4993881;28;20217;-77
2023/07/07 02:35:02;;;;;;;11.73;10.82;;;;;;;;;;4993849;28;20049;-77
2023/07/07 02:37:31;;;;;;;12.30;11.05;;;;;;;;;;5002791;28;20041;-77
2023/07/07 02:39:57;;;;;;;12.43;11.32;;;;;;;;;;5006987;28;20065;-77
2023/07/07 02:42:24;;;;;;;11.23;10.13;;;;;;;;;;4998173;28;20046;-77
2023/07/07 02:44:51;;;;;;;11.18;10.32;;;;;;;;;;4990988;28;20030;-77
2023/07/07 02:47:17;;;;;;;12.05;10.88;;;;;;;;;;4990972;28;20120;-78
2023/07/07 02:49:44;;;;;;;11.50;9.68;;;;;;;;;;4990836;28;20497;-77
2023/07/07 02:52:10;;;;;;;11.52;10.52;;;;;;;;;;4991843;28;20050;-78
2023/07/07 02:54:36;;;;;;;11.77;10.68;;;;;;;;;;4974499;28;20170;-77
2023/07/07 02:57:02;;;;;;;18.58;10.30;;;;;;;;;;4990724;28;20120;-79
2023/07/07 02:59:29;;;;;;;11.18;10.02;;;;;;;;;;4990351;28;20519;-78
2023/07/07 03:01:55;;;;;;;15.70;9.98;;;;;;;;;;4990366;28;20413;-78
2023/07/07 03:04:24;;;;;;;13.60;9.45;;;;;;;;;;4990281;28;20034;-76
2023/07/07 03:06:51;;;;;;;10.68;8.73;;;;;;;;;;4991852;28;20050;-78
2023/07/07 03:09:19;;;;;;;15.00;9.35;;;;;;;;;;4991828;28;20038;-76
2023/07/07 03:11:46;;;;;;;9.23;8.52;;;;;;;;;;4974280;28;20137;-75
2023/07/07 03:14:16;;;;;;;10.77;9.75;;;;;;;;;;4990649;28;20061;-78
2023/07/07 03:16:47;;;;;;;10.15;9.27;;;;;;;;;;4990002;28;20046;-77
2023/07/07 03:19:16;;;;;;;9.68;7.75;;;;;;;;;;4974661;28;20084;-77
2023/07/07 03:21:54;;;;;;;9.60;8.73;;;;;;;;;;4990186;28;20145;-76
2023/07/07 03:24:27;;;;;;;10.15;8.18;;;;;;;;;;4990847;28;20104;-77
2023/07/07 03:26:53;;;;;;;15.20;9.77;;;;;;;;;;4991132;28;20132;-75
2023/07/07 03:29:22;;;;;;;9.68;8.38;;;;;;;;;;4974119;28;20085;-77
2023/07/07 03:31:48;;;;;;;10.00;8.43;;;;;;;;;;4990320;28;20050;-77
2023/07/07 03:34:14;;;;;;;8.88;8.27;;;;;;;;;;4973701;28;20097;-77
2023/07/07 03:36:43;;;;;;;9.20;8.38;;;;;;;;;;4974020;28;20041;-76
2023/07/07 03:39:11;;;;;;;12.10;8.15;;;;;;;;;;4989911;28;20039;-77
2023/07/07 03:41:37;;;;;;;8.57;7.75;;;;;;;;;;4989675;28;20065;-76
2023/07/07 03:44:05;;;;;;;9.10;8.13;;;;;;;;;;4990032;28;20034;-78
2023/07/07 03:46:34;;;;;;;15.07;8.13;;;;;;;;;;4989288;28;20034;-79
2023/07/07 03:49:01;;;;;;;9.02;8.23;;;;;;;;;;4991057;28;20074;-78
2023/07/07 03:51:36;;;;;;;10.38;8.35;;;;;;;;;;4989026;28;20560;-77
2023/07/07 03:54:04;;;;;;;13.70;8.98;;;;;;;;;;4990902;28;20035;-78
2023/07/07 03:56:32;;;;;;;8.73;8.02;;;;;;;;;;4973206;28;20038;-78
2023/07/07 03:58:58;;;;;;;11.60;8.32;;;;;;;;;;4989881;28;20107;-77
2023/07/07 04:01:24;;;;;;;10.80;7.65;;;;;;;;;;4990644;28;20614;-79
2023/07/07 04:03:51;;;;;;;9.63;8.00;;;;;;;;;;4973740;28;20406;-77
2023/07/07 04:06:17;;;;;;;8.60;7.75;;;;;;;;;;4973479;28;20042;-78
2023/07/07 04:08:43;;;;;;;8.30;7.60;;;;;;;;;;4989238;28;20049;-78
2023/07/07 04:11:13;;;;;;;9.73;7.95;;;;;;;;;;4989336;28;20030;-76
2023/07/07 04:13:39;;;;;;;8.35;7.70;;;;;;;;;;4990783;28;20034;-78
2023/07/07 04:16:15;;;;;;;8.63;7.85;;;;;;;;;;4989232;28;20034;-79
2023/07/07 04:18:41;;;;;;;11.98;7.63;;;;;;;;;;4990707;28;20401;-78
2023/07/07 04:21:09;;;;;;;11.95;7.60;;;;;;;;;;4990620;28;20030;-76
2023/07/07 04:23:35;;;;;;;8.38;7.35;;;;;;;;;;4990381;28;20050;-77
2023/07/07 04:26:02;;;;;;;8.63;7.40;;;;;;;;;;4990486;28;20252;-78
2023/07/07 04:28:29;;;;;;;10.82;7.45;;;;;;;;;;4973018;28;20065;-76
2023/07/07 04:30:56;;;;;;;6.55;5.95;;;;;;;;;;4990598;28;20556;-78
2023/07/07 04:33:23;;;;;;;6.75;6.25;;;;;;;;;;4990415;28;20096;-78
2023/07/07 04:35:53;;;;;;;7.78;7.07;;;;;;;;;;4990083;28;20037;-78
2023/07/07 04:38:20;;;;;;;9.13;7.65;;;;;;;;;;4989157;28;20042;-77
2023/07/07 04:40:46;;;;;;;13.57;6.53;;;;;;;;;;4990252;28;20512;-76
2023/07/07 04:43:12;;;;;;;7.10;6.47;;;;;;;;;;4991323;28;20070;-76
2023/07/07 04:45:38;;;;;;;7.65;6.97;;;;;;;;;;4992729;28;20069;-78
2023/07/07 04:48:05;;;;;;;6.40;5.82;;;;;;;;;;4976646;28;20038;-77
2023/07/07 04:50:34;;;;;;;7.05;6.40;;;;;;;;;;4993803;28;20117;-78
2023/07/07 04:53:00;;;;;;;11.15;6.43;;;;;;;;;;4976364;28;20077;-77
2023/07/07 04:55:26;;;;;;;8.98;7.50;;;;;;;;;;4994488;28;20516;-78
2023/07/07 04:57:53;;;;;;;7.22;6.63;;;;;;;;;;4997010;28;20041;-78
2023/07/07 05:00:19;;;;;;;11.93;7.63;;;;;;;;;;5000040;28;20034;-77
2023/07/07 05:02:46;;;;;;;12.88;7.70;;;;;;;;;;5015534;28;20042;-77
2023/07/07 05:05:12;;;;;;;7.63;6.93;;;;;;;;;;5004796;28;20093;-77
2023/07/07 05:07:38;;;;;;;7.57;6.82;;;;;;;;;;4997829;28;20045;-77
2023/07/07 05:10:05;;;;;;;11.00;7.22;;;;;;;;;;4994073;28;20034;-77
2023/07/07 05:12:31;;;;;;;8.43;7.68;;;;;;;;;;4993616;28;20505;-77
2023/07/07 05:14:58;;;;;;;10.32;6.97;;;;;;;;;;4993710;28;20038;-78
2023/07/07 05:17:24;;;;;;;8.75;6.95;;;;;;;;;;4992210;28;20464;-77
2023/07/07 05:19:50;;;;;;;7.78;6.85;;;;;;;;;;4993092;28;20034;-78
2023/07/07 05:22:16;;;;;;;7.95;7.25;;;;;;;;;;4991920;28;20042;-76
2023/07/07 05:24:42;;;;;;;7.15;6.55;;;;;;;;;;4991836;28;20074;-77
2023/07/07 05:27:08;;;;;;;9.25;7.10;;;;;;;;;;4993398;28;20035;-76
2023/07/07 05:29:34;;;;;;;6.72;6.00;;;;;;;;;;4976158;28;20045;-77
2023/07/07 05:32:00;;;;;;;6.78;6.22;;;;;;;;;;4993360;28;20046;-79
2023/07/07 05:34:26;;;;;;;7.05;6.43;;;;;;;;;;4976494;28;20112;-76
2023/07/07 05:36:52;;;;;;;13.25;7.03;;;;;;;;;;4993166;28;20102;-77
2023/07/07 05:39:18;;;;;;;7.20;6.50;;;;;;;;;;4993754;28;20034;-79
2023/07/07 05:41:44;;;;;;;7.07;6.38;;;;;;;;;;4993875;28;20040;-78
2023/07/07 05:44:10;;;;;;;8.07;6.10;;;;;;;;;;4996541;28;20030;-78
2023/07/07 05:46:36;;;;;;;11.02;6.20;;;;;;;;;;4988760;28;20038;-76
2023/07/07 05:49:02;;;;;;;6.72;6.10;;;;;;;;;;5004038;28;20061;-77
2023/07/07 05:51:28;;;;;;;7.13;6.43;;;;;;;;;;4994206;28;20046;-78
2023/07/07 05:53:57;;;;;;;7.78;6.43;;;;;;;;;;4992686;28;20053;-78
2023/07/07 05:56:23;;;;;;;6.72;6.07;;;;;;;;;;4990916;28;20073;-77
2023/07/07 05:58:50;;;;;;;7.90;7.13;;;;;;;;;;4992495;28;20049;-79
2023/07/07 06:01:16;;;;;;;8.73;6.50;;;;;;;;;;4991416;28;20048;-77
2023/07/07 06:03:42;;;;;;;7.35;6.65;;;;;;;;;;4975193;28;20417;-77
2023/07/07 06:06:08;;;;;;;7.05;6.47;;;;;;;;;;4992529;28;20171;-77
2023/07/07 06:08:34;;;;;;;8.75;6.60;;;;;;;;;;4992328;28;20057;-78
2023/07/07 06:11:00;;;;;;;9.73;7.07;;;;;;;;;;4992417;28;20123;-78
2023/07/07 06:13:28;;;;;;;10.32;6.57;;;;;;;;;;4992326;28;20053;-77
2023/07/07 06:15:54;;;;;;;6.97;6.38;;;;;;;;;;4991942;28;20265;-77
2023/07/07 06:18:20;;;;;;;6.97;6.38;;;;;;;;;;4991057;28;20458;-77
2023/07/07 06:20:50;;;;;;;7.15;6.63;;;;;;;;;;4992024;28;20500;-78
2023/07/07 06:23:16;;;;;;;9.65;6.30;;;;;;;;;;4990830;28;20069;-77
2023/07/07 06:25:42;;;;;;;7.53;6.80;;;;;;;;;;4990709;28;20088;-78
2023/07/07 06:28:08;;;;;;;7.45;6.65;;;;;;;;;;4991074;28;20038;-77
2023/07/07 06:30:34;;;;;;;6.93;6.43;;;;;;;;;;4991962;28;20046;-78
2023/07/07 06:33:02;;;;;;;7.80;7.20;;;;;;;;;;4991684;28;20417;-78
2023/07/07 06:35:29;;;;;;;9.40;7.15;;;;;;;;;;4991878;28;20034;-77
2023/07/07 06:37:55;;;;;;;7.90;7.10;;;;;;;;;;4991471;28;20034;-77
2023/07/07 06:40:21;;;;;;;7.78;7.20;;;;;;;;;;4991975;28;20038;-78
2023/07/07 06:42:49;;;;;;;7.85;7.25;;;;;;;;;;4991719;28;20126;-76
2023/07/07 06:45:18;;;;;;;7.13;6.57;;;;;;;;;;4975731;28;20128;-78
2023/07/07 06:47:44;;;;;;;8.25;6.88;;;;;;;;;;4991584;28;20077;-77
2023/07/07 06:50:31;;;;;;;9.13;6.97;;;;;;;;;;4991847;28;20034;-76
2023/07/07 06:52:57;;;;;;;7.57;6.82;;;;;;;;;;4990868;28;20544;-78
2023/07/07 06:55:24;;;;;;;8.80;6.75;;;;;;;;;;4991783;28;20500;-77
2023/07/07 06:57:49;;;;;;;7.97;7.35;;;;;;;;;;4989901;28;20092;-77
2023/07/07 07:00:16;;;;;;;7.15;6.55;;;;;;;;;;4991739;28;20373;-77
2023/07/07 07:02:42;;;;;;;8.90;7.43;;;;;;;;;;4991212;28;20074;-77
2023/07/07 07:05:08;;;;;;;12.07;7.55;;;;;;;;;;4991428;28;20038;-77
2023/07/07 07:07:34;;;;;;;12.73;7.15;;;;;;;;;;4991471;28;20040;-77
2023/07/07 07:10:00;;;;;;;11.02;7.72;;;;;;;;;;4991461;28;20414;-79
2023/07/07 07:12:26;;;;;;;8.98;8.07;;;;;;;;;;4991030;28;20057;-77
2023/07/07 07:14:52;;;;;;;10.70;8.10;;;;;;;;;;4989666;28;20038;-78
2023/07/07 07:17:18;;;;;;;13.32;7.80;;;;;;;;;;4991306;28;20039;-77
2023/07/07 07:19:45;;;;;;;9.75;7.53;;;;;;;;;;4991157;28;20036;-78
2023/07/07 07:22:11;;;;;;;8.73;7.22;;;;;;;;;;4991323;28;20498;-78
2023/07/07 07:24:37;;;;;;;9.13;8.05;;;;;;;;;;4991147;28;20034;-77
2023/07/07 07:27:04;;;;;;;8.80;7.05;;;;;;;;;;4991105;28;20394;-76
2023/07/07 07:29:31;;;;;;;10.32;7.78;;;;;;;;;;4990962;28;20042;-78
2023/07/07 07:31:57;;;;;;;8.70;7.90;;;;;;;;;;4989326;28;20057;-78
2023/07/07 07:34:25;;;;;;;8.73;7.90;;;;;;;;;;4989866;28;20437;-78
2023/07/07 07:36:51;;;;;;;10.45;8.60;;;;;;;;;;4989575;28;20038;-78
2023/07/07 07:39:17;;;;;;;10.32;8.70;;;;;;;;;;4991117;28;20030;-78
2023/07/07 07:41:44;;;;;;;9.50;8.68;;;;;;;;;;4990765;28;20141;-78
2023/07/07 07:44:10;;;;;;;11.15;7.90;;;;;;;;;;4973638;28;20035;-77
2023/07/07 07:46:37;;;;;;;8.90;8.00;;;;;;;;;;4990601;28;20067;-78
2023/07/07 07:49:03;;;;;;;8.90;8.07;;;;;;;;;;4991048;28;20030;-78
2023/07/07 07:51:29;;;;;;;8.65;7.75;;;;;;;;;;4990849;28;20053;-78
2023/07/07 07:53:55;;;;;;;8.32;7.50;;;;;;;;;;4991238;28;20034;-77
2023/07/07 07:56:21;;;;;;;9.02;7.22;;;;;;;;;;4999897;28;20045;-78
2023/07/07 07:58:47;;;;;;;11.02;7.95;;;;;;;;;;5013088;28;20125;-76
2023/07/07 08:01:13;;;;;;;7.47;6.78;;;;;;;;;;4995213;28;20069;-78
2023/07/07 08:03:39;;;;;;;7.90;7.20;;;;;;;;;;4992369;28;20030;-77
2023/07/07 08:06:05;;;;;;;8.77;7.75;;;;;;;;;;4989741;28;20039;-77
2023/07/07 08:08:32;;;;;;;8.15;7.43;;;;;;;;;;4990956;28;20039;-78
2023/07/07 08:10:58;;;;;;;7.80;7.10;;;;;;;;;;4990998;28;20461;-78
2023/07/07 08:13:25;;;;;;;7.57;6.80;;;;;;;;;;4957507;28;20046;-77
2023/07/07 08:15:51;;;;;;;8.63;5.97;;;;;;;;;;4990551;28;20632;-78
2023/07/07 08:18:17;;;;;;;7.43;6.05;;;;;;;;;;4991728;28;20038;-78
2023/07/07 08:20:43;;;;;;;6.90;6.40;;;;;;;;;;4993315;28;20524;-78
2023/07/07 08:23:09;;;;;;;7.32;6.72;;;;;;;;;;4994673;28;20462;-78
2023/07/07 08:25:35;;;;;;;7.40;6.80;;;;;;;;;;4994547;28;20034;-77
2023/07/07 08:28:01;;;;;;;8.05;7.35;;;;;;;;;;4976771;28;20106;-78
2023/07/07 08:30:27;;;;;;;8.30;7.50;;;;;;;;;;4994617;28;20561;-79
2023/07/07 08:32:53;;;;;;;8.52;7.50;;;;;;;;;;4992876;28;20054;-77
2023/07/07 08:35:20;;;;;;;11.32;7.80;;;;;;;;;;4994929;28;20054;-78
2023/07/07 08:37:47;;;;;;;7.97;7.32;;;;;;;;;;4992921;28;20038;-78
2023/07/07 08:40:17;;;;;;;8.63;7.82;;;;;;;;;;4994931;28;20177;-77
2023/07/07 08:42:45;;;;;;;8.18;7.60;;;;;;;;;;4977006;28;20046;-78
2023/07/07 08:45:15;;;;;;;9.38;8.23;;;;;;;;;;4976936;28;20061;-78
2023/07/07 08:47:45;;;;;;;9.65;8.88;;;;;;;;;;4994433;28;20061;-77
2023/07/07 08:50:14;;;;;;;8.65;6.97;;;;;;;;;;4982521;28;20057;-77
2023/07/07 08:52:46;;;;;;;12.40;8.35;;;;;;;;;;5004741;28;20053;-78
2023/07/07 08:55:28;;;;;;;7.63;7.00;;;;;;;;;;4987497;28;20041;-77
2023/07/07 08:58:05;;;;;;;8.82;6.93;;;;;;;;;;5004541;28;20550;-77
2023/07/07 09:00:40;;;;;;;6.60;6.20;;;;;;;;;;4993184;28;20049;-78
2023/07/07 09:03:06;;;;;;;10.60;6.97;;;;;;;;;;4992667;28;20038;-77
2023/07/07 09:05:54;;;;;;;7.82;7.03;;;;;;;;;;4992488;28;20034;-78
2023/07/07 09:08:39;;;;;;;9.52;6.97;;;;;;;;;;4992441;28;20117;-78
2023/07/07 09:11:12;;;;;;;7.13;6.60;;;;;;;;;;4993384;28;20038;-77
2023/07/07 09:13:38;;;;;;;8.98;7.13;;;;;;;;;;4993386;28;20034;-77
2023/07/07 09:16:23;;;;;;;9.35;7.03;;;;;;;;;;4975985;28;20480;-78
2023/07/07 09:19:09;;;;;;;7.85;7.07;;;;;;;;;;4993019;28;20456;-78
2023/07/07 09:21:35;;;;;;;6.97;6.30;;;;;;;;;;4992602;28;20038;-76
2023/07/07 09:24:04;;;;;;;7.70;7.10;;;;;;;;;;4992771;28;20153;-78
2023/07/07 09:26:31;;;;;;;7.87;7.13;;;;;;;;;;4993194;28;20030;-76
2023/07/07 09:28:57;;;;;;;10.15;7.47;;;;;;;;;;4975445;28;20286;-79
2023/07/07 09:31:42;;;;;;;7.90;6.68;;;;;;;;;;4991769;28;20042;-77
2023/07/07 09:34:08;;;;;;;7.18;6.50;;;;;;;;;;4992951;28;20529;-76
2023/07/07 09:36:40;;;;;;;7.22;6.60;;;;;;;;;;4992036;28;20034;-78
2023/07/07 09:39:29;;;;;;;7.57;6.47;;;;;;;;;;4992952;28;20056;-78
2023/07/07 09:42:14;;;;;;;7.65;6.93;;;;;;;;;;4964643;28;20038;-77
2023/07/07 09:44:46;;;;;;;7.78;6.50;;;;;;;;;;4993163;28;20413;-77
2023/07/07 09:47:22;;;;;;;7.75;7.03;;;;;;;;;;4992857;28;20042;-77
2023/07/07 09:49:48;;;;;;;7.68;6.75;;;;;;;;;;4975160;28;20417;-76
2023/07/07 09:52:20;;;;;;;7.80;7.20;;;;;;;;;;4992401;28;20588;-80
2023/07/07 09:54:46;;;;;;;7.18;6.57;;;;;;;;;;4991446;28;20035;-78
2023/07/07 09:57:15;;;;;;;7.57;6.80;;;;;;;;;;4992684;28;20052;-79
2023/07/07 09:59:42;;;;;;;7.68;7.18;;;;;;;;;;4975208;28;20030;-78
2023/07/07 10:02:17;;;;;;;7.78;7.00;;;;;;;;;;4992210;28;20532;-78
2023/07/07 10:04:44;;;;;;;7.72;7.18;;;;;;;;;;4991329;28;20041;-78
2023/07/07 10:07:10;;;;;;;6.88;6.28;;;;;;;;;;4991047;28;20672;-77
2023/07/07 10:09:36;;;;;;;7.57;6.60;;;;;;;;;;4992367;28;20171;-78
2023/07/07 10:12:02;;;;;;;8.52;7.20;;;;;;;;;;4992273;28;20074;-79
2023/07/07 10:14:28;;;;;;;8.85;6.75;;;;;;;;;;4991127;28;20423;-78
2023/07/07 10:17:10;;;;;;;7.25;6.60;;;;;;;;;;4991163;28;20030;-79
2023/07/07 10:19:40;;;;;;;7.20;6.60;;;;;;;;;;4992212;28;20041;-79
2023/07/07 10:22:05;;;;;;;;;;;;;;;;;;4992274;28;20394;-78
2023/07/07 10:24:31;;;;;;;9.30;5.93;;;;;;;;;;4992088;28;20519;-78
2023/07/07 10:26:58;;;;;;;6.65;6.15;;;;;;;;;;4990679;28;20030;-78
2023/07/07 10:29:26;;;;;;;6.68;6.22;;;;;;;;;;4992570;28;20045;-78
2023/07/07 10:31:52;;;;;;;7.00;6.30;;;;;;;;;;4991008;28;20168;-79
2023/07/07 10:34:34;;;;;;;6.85;6.25;;;;;;;;;;4991927;28;20096;-78
2023/07/07 10:37:00;;;;;;;12.75;6.60;;;;;;;;;;4990441;28;20030;-77
2023/07/07 10:39:27;;;;;;;7.20;5.75;;;;;;;;;;4992010;28;20043;-78
2023/07/07 10:41:52;;;;;;;7.97;5.40;;;;;;;;;;4989761;28;20041;-78
2023/07/07 10:44:19;;;;;;;6.63;5.88;;;;;;;;;;4991799;28;20472;-77
2023/07/07 10:46:44;;;;;;;6.72;5.25;;;;;;;;;;4991746;28;20096;-78
2023/07/07 10:49:14;;;;;;;6.68;6.07;;;;;;;;;;4991667;28;20038;-78
2023/07/07 10:51:47;;;;;;;6.03;5.60;;;;;;;;;;5004686;28;20038;-75
2023/07/07 10:54:29;;;;;;;6.40;5.90;;;;;;;;;;5009615;28;20201;-78
2023/07/07 10:57:03;;;;;;;6.03;5.50;;;;;;;;;;4993097;28;20038;-79
2023/07/07 10:59:35;;;;;;;5.70;5.40;;;;;;;;;;4991353;28;20527;-77
2023/07/07 11:02:10;;;;;;;5.50;5.13;;;;;;;;;;4991409;28;20133;-78
2023/07/07 11:04:46;;;;;;;5.85;5.35;;;;;;;;;;4990206;28;20053;-77
2023/07/07 11:07:21;;;;;;;5.82;5.43;;;;;;;;;;4989830;28;20485;-77
2023/07/07 11:10:06;;;;;;;5.47;5.07;;;;;;;;;;4991489;28;20042;-78
2023/07/07 11:12:41;;;;;;;6.93;5.47;;;;;;;;;;4991334;28;20146;-78
2023/07/07 11:15:27;;;;;;;7.00;5.68;;;;;;;;;;4989751;28;20136;-77
2023/07/07 11:17:53;;;;;;;6.68;5.90;;;;;;;;;;4989858;28;20184;-77
2023/07/07 11:20:22;;;;;;;6.10;5.60;;;;;;;;;;4991047;28;20113;-78
2023/07/07 11:22:48;;;;;;;;;;;;;;;;;;4990187;28;20042;-78
2023/07/07 11:25:17;;;;;;;7.28;6.75;;;;;;;;;;4989479;28;19913;-78
2023/07/07 11:27:56;;;;;;;8.27;7.40;;;;;;;;;;4991161;28;20560;-78
2023/07/07 11:30:26;;;;;;;7.93;7.22;;;;;;;;;;4989808;28;20141;-77
2023/07/07 11:33:10;;;;;;;7.60;7.10;;;;;;;;;;4990604;28;20054;-78
2023/07/07 11:35:46;;;;;;;7.32;6.82;;;;;;;;;;4990954;28;20053;-77
2023/07/07 11:38:22;;;;;;;9.93;7.55;;;;;;;;;;4990614;28;20022;-78
2023/07/07 11:40:57;;;;;;;9.93;7.15;;;;;;;;;;4989763;28;20046;-75
2023/07/07 11:43:35;;;;;;;7.70;7.07;;;;;;;;;;4990987;28;20038;-78
2023/07/07 11:46:05;;;;;;;7.78;7.18;;;;;;;;;;4990878;28;20118;-79
2023/07/07 11:48:48;;;;;;;8.23;7.15;;;;;;;;;;4990195;28;20038;-77
2023/07/07 11:51:18;;;;;;;7.90;7.10;;;;;;;;;;4973626;28;20121;-78
2023/07/07 11:53:47;;;;;;;11.00;7.00;;;;;;;;;;4989902;28;20512;-77
2023/07/07 11:56:25;;;;;;;8.82;7.47;;;;;;;;;;4990803;28;20317;-76
2023/07/07 11:59:10;;;;;;;7.22;6.75;;;;;;;;;;4991195;28;20038;-78
2023/07/07 12:01:40;;;;;;;8.23;7.47;;;;;;;;;;4991643;28;20038;-79
2023/07/07 12:04:16;;;;;;;8.90;8.00;;;;;;;;;;4975216;28;20508;-77
2023/07/07 12:06:52;;;;;;;8.80;8.10;;;;;;;;;;5000632;28;20446;-78
2023/07/07 12:09:23;;;;;;;9.30;8.25;;;;;;;;;;5002021;28;20121;-78
2023/07/07 12:11:50;;;;;;;10.02;9.15;;;;;;;;;;4992783;28;20477;-79
2023/07/07 12:14:21;;;;;;;11.05;10.00;;;;;;;;;;4989286;28;20054;-79
2023/07/07 12:16:48;;;;;;;10.27;9.38;;;;;;;;;;4989523;28;20049;-79
2023/07/07 12:19:16;;;;;;;11.05;10.05;;;;;;;;;;4988973;28;20042;-77
2023/07/07 12:21:42;;;;;;;11.50;10.05;;;;;;;;;;4989651;28;20057;-77
2023/07/07 12:24:08;;;;;;;12.75;10.00;;;;;;;;;;4990105;28;20505;-78
2023/07/07 12:26:36;;;;;;;13.35;10.40;;;;;;;;;;4990320;28;20176;-78
2023/07/07 12:29:02;;;;;;;11.38;10.02;;;;;;;;;;4989934;28;20034;-77
2023/07/07 12:31:28;;;;;;;11.48;10.57;;;;;;;;;;4990479;28;20034;-76
2023/07/07 12:33:54;;;;;;;11.65;10.02;;;;;;;;;;4990439;28;20046;-78
2023/07/07 12:36:22;;;;;;;11.40;10.32;;;;;;;;;;4989442;28;20037;-78
2023/07/07 12:38:48;;;;;;;10.73;9.80;;;;;;;;;;4989507;28;20097;-78
2023/07/07 12:41:15;;;;;;;14.77;10.27;;;;;;;;;;4990632;28;20105;-78
2023/07/07 12:43:43;;;;;;;12.38;10.98;;;;;;;;;;4989134;28;20068;-78
2023/07/07 12:46:20;;;;;;;12.77;11.60;;;;;;;;;;4989990;28;20034;-76
2023/07/07 12:48:46;;;;;;;12.98;11.52;;;;;;;;;;4989341;28;20041;-79
2023/07/07 12:51:15;;;;;;;12.25;11.00;;;;;;;;;;4989946;28;20105;-77
2023/07/07 12:53:41;;;;;;;13.05;12.05;;;;;;;;;;4972754;28;20054;-79
2023/07/07 12:56:07;;;;;;;12.13;11.05;;;;;;;;;;4988792;28;20030;-77
2023/07/07 12:58:37;;;;;;;13.95;12.30;;;;;;;;;;4990118;28;20092;-78
2023/07/07 13:01:10;;;;;;;14.65;13.10;;;;;;;;;;4990131;28;20509;-77
2023/07/07 13:03:45;;;;;;;13.68;11.15;;;;;;;;;;4972786;28;20417;-77
2023/07/07 13:06:47;;;;;;;10.75;9.85;;;;;;;;;;4992031;28;20085;-78
2023/07/07 13:09:16;;;;;;;10.65;9.65;;;;;;;;;;4932748;29;20050;-78
2023/07/07 13:11:56;;;;;;;14.23;9.93;;;;;;;;;;4982708;28;20046;-79
2023/07/07 13:14:28;;;;;;;10.17;9.10;;;;;;;;;;4993374;28;20042;-77
2023/07/07 13:16:54;;;;;;;8.75;7.82;;;;;;;;;;4992139;28;20277;-77
2023/07/07 13:19:20;;;;;;;12.80;8.52;;;;;;;;;;4991786;28;20045;-78
2023/07/07 13:21:47;;;;;;;8.90;7.72;;;;;;;;;;4993500;28;20042;-78
2023/07/07 13:24:13;;;;;;;8.30;7.60;;;;;;;;;;4993063;28;20420;-77
2023/07/07 13:26:39;;;;;;;9.18;8.30;;;;;;;;;;4993450;28;20042;-77
2023/07/07 13:29:05;;;;;;;9.10;8.20;;;;;;;;;;4992943;28;20042;-78
2023/07/07 13:31:31;;;;;;;6.70;6.07;;;;;;;;;;4992246;28;20548;-77
2023/07/07 13:33:57;;;;;;;7.60;7.07;;;;;;;;;;4992339;28;20078;-77
2023/07/07 13:36:23;;;;;;;8.13;7.38;;;;;;;;;;4992941;28;20038;-76
2023/07/07 13:38:49;;;;;;;6.53;6.10;;;;;;;;;;4992217;28;20084;-75
2023/07/07 13:41:17;;;;;;;7.25;6.68;;;;;;;;;;4991589;28;20042;-78
2023/07/07 13:43:44;;;;;;;7.03;6.40;;;;;;;;;;4991657;28;20061;-77
2023/07/07 13:46:14;;;;;;;8.15;7.65;;;;;;;;;;4978716;28;20041;-78
2023/07/07 13:48:41;;;;;;;7.85;7.25;;;;;;;;;;4992926;28;20041;-78
2023/07/07 13:51:14;;;;;;;7.65;7.00;;;;;;;;;;4993361;28;20560;-78
2023/07/07 13:53:40;;;;;;;9.68;7.07;;;;;;;;;;4991555;28;20054;-77
2023/07/07 13:56:08;;;;;;;8.35;6.70;;;;;;;;;;4992466;28;20034;-78
2023/07/07 13:58:33;;;;;;;16.55;7.40;;;;;;;;;;4991583;28;20653;-77
2023/07/07 14:01:00;;;;;;;7.95;7.30;;;;;;;;;;4991193;28;20069;-77
2023/07/07 14:03:26;;;;;;;7.57;7.07;;;;;;;;;;4992604;28;20121;-79
2023/07/07 14:05:54;;;;;;;8.13;7.43;;;;;;;;;;4992637;28;20034;-78
2023/07/07 14:08:24;;;;;;;9.18;7.28;;;;;;;;;;4992033;28;20124;-78
2023/07/07 14:10:50;;;;;;;11.65;7.90;;;;;;;;;;4992461;28;20039;-76
2023/07/07 14:13:17;;;;;;;8.88;7.97;;;;;;;;;;4991830;28;20508;-78
2023/07/07 14:15:54;;;;;;;12.38;7.78;;;;;;;;;;4957978;28;20413;-77
2023/07/07 14:18:21;;;;;;;10.20;8.80;;;;;;;;;;4990629;28;20129;-78
2023/07/07 14:20:48;;;;;;;12.43;8.73;;;;;;;;;;4991190;28;20046;-78
2023/07/07 14:23:15;;;;;;;16.15;8.20;;;;;;;;;;4991829;28;20045;-78
2023/07/07 14:25:43;;;;;;;16.30;8.85;;;;;;;;;;4992212;28;20041;-79
2023/07/07 14:28:16;;;;;;;18.38;8.07;;;;;;;;;;4991507;28;20038;-79
2023/07/07 14:31:10;;;;;;;11.50;8.88;;;;;;;;;;4992100;28;20169;-78
2023/07/07 14:33:40;;;;;;;11.82;9.57;;;;;;;;;;4986898;28;20054;-78
2023/07/07 14:36:14;;;;;;;14.07;8.48;;;;;;;;;;4991721;28;20037;-78
2023/07/07 14:38:40;;;;;;;15.95;8.88;;;;;;;;;;4990698;28;20034;-78
2023/07/07 14:41:10;;;;;;;10.40;8.18;;;;;;;;;;4990300;28;20049;-78
2023/07/07 14:43:38;;;;;;;11.05;8.32;;;;;;;;;;4990480;28;20539;-77
2023/07/07 14:46:04;;;;;;;10.10;8.57;;;;;;;;;;4974533;28;20552;-78